Terminal Aerodrome Forecast
Issued by NWS Duluth, MN

Home | Current Version | Previous Version | Text Only | Print | Product List | Glossary On
Versions: 1 2 3 4 5 6 7 8 9 10 11 12 13 14 15 16 17 18 19 20 21 22 23 24 25 26 27 28 29
421
FTUS43 KDLH 262112 AAC
TAFDLH
TAF AMD
KDLH 262112Z 2621/2718 03011KT 3/4SM -SN BR BKN011 BKN016 OVC027
     FM270100 02008KT 5SM BR OVC015
     FM271100 35009KT P6SM OVC020
     FM271500 33010G17KT P6SM OVC025=

USA.gov is the U.S. government's official web portal to all federal, state and local government web resources and services.